sensor_id;sensor_type;location;lat;lon;timestamp;P1;durP1;ratioP1;P2;durP2;ratioP2
58472;SDS011;44775;51.564;5.460;2023-05-29T00:00:12;11.50;;;5.28;;
58472;SDS011;44775;51.564;5.460;2023-05-29T00:02:45;5.80;;;3.63;;
58472;SDS011;44775;51.564;5.460;2023-05-29T00:05:11;8.73;;;3.83;;
58472;SDS011;44775;51.564;5.460;2023-05-29T00:07:37;9.48;;;4.28;;
58472;SDS011;44775;51.564;5.460;2023-05-29T00:10:04;11.45;;;4.45;;
58472;SDS011;44775;51.564;5.460;2023-05-29T00:12:30;8.75;;;3.97;;
58472;SDS011;44775;51.564;5.460;2023-05-29T00:14:55;8.63;;;3.70;;
58472;SDS011;44775;51.564;5.460;2023-05-29T00:17:22;9.35;;;3.88;;
58472;SDS011;44775;51.564;5.460;2023-05-29T00:19:47;9.02;;;3.70;;
58472;SDS011;44775;51.564;5.460;2023-05-29T00:22:13;10.80;;;3.97;;
58472;SDS011;44775;51.564;5.460;2023-05-29T00:24:38;7.03;;;3.47;;
58472;SDS011;44775;51.564;5.460;2023-05-29T00:27:04;6.43;;;3.40;;
58472;SDS011;44775;51.564;5.460;2023-05-29T00:29:29;6.95;;;3.30;;
58472;SDS011;44775;51.564;5.460;2023-05-29T00:31:55;9.40;;;3.90;;
58472;SDS011;44775;51.564;5.460;2023-05-29T00:34:21;8.38;;;3.53;;
58472;SDS011;44775;51.564;5.460;2023-05-29T00:36:48;8.02;;;3.35;;
58472;SDS011;44775;51.564;5.460;2023-05-29T00:39:14;7.45;;;3.58;;
58472;SDS011;44775;51.564;5.460;2023-05-29T00:41:39;10.85;;;3.40;;
58472;SDS011;44775;51.564;5.460;2023-05-29T00:44:04;9.60;;;3.35;;
58472;SDS011;44775;51.564;5.460;2023-05-29T00:46:30;9.25;;;3.30;;
58472;SDS011;44775;51.564;5.460;2023-05-29T00:48:57;10.07;;;3.63;;
58472;SDS011;44775;51.564;5.460;2023-05-29T00:51:23;6.47;;;2.85;;
58472;SDS011;44775;51.564;5.460;2023-05-29T00:53:50;11.13;;;4.03;;
58472;SDS011;44775;51.564;5.460;2023-05-29T00:56:16;13.10;;;4.00;;
58472;SDS011;44775;51.564;5.460;2023-05-29T00:58:42;8.25;;;3.10;;
58472;SDS011;44775;51.564;5.460;2023-05-29T01:01:08;7.90;;;3.38;;
58472;SDS011;44775;51.564;5.460;2023-05-29T01:03:34;7.28;;;2.97;;
58472;SDS011;44775;51.564;5.460;2023-05-29T01:06:01;6.75;;;3.03;;
58472;SDS011;44775;51.564;5.460;2023-05-29T01:08:28;11.23;;;3.00;;
58472;SDS011;44775;51.564;5.460;2023-05-29T01:10:55;8.63;;;3.30;;
58472;SDS011;44775;51.564;5.460;2023-05-29T01:13:25;8.98;;;3.40;;
58472;SDS011;44775;51.564;5.460;2023-05-29T01:15:57;21.60;;;3.88;;
58472;SDS011;44775;51.564;5.460;2023-05-29T01:24:25;10.75;;;3.30;;
58472;SDS011;44775;51.564;5.460;2023-05-29T01:27:00;9.57;;;3.47;;
58472;SDS011;44775;51.564;5.460;2023-05-29T01:29:29;11.63;;;3.40;;
58472;SDS011;44775;51.564;5.460;2023-05-29T01:31:57;13.80;;;3.67;;
58472;SDS011;44775;51.564;5.460;2023-05-29T01:34:23;12.07;;;3.28;;
58472;SDS011;44775;51.564;5.460;2023-05-29T01:36:49;8.95;;;3.22;;
58472;SDS011;44775;51.564;5.460;2023-05-29T01:39:14;8.25;;;3.30;;
58472;SDS011;44775;51.564;5.460;2023-05-29T01:41:41;11.10;;;3.33;;
58472;SDS011;44775;51.564;5.460;2023-05-29T01:44:08;11.55;;;3.38;;
58472;SDS011;44775;51.564;5.460;2023-05-29T01:46:34;17.17;;;4.10;;
58472;SDS011;44775;51.564;5.460;2023-05-29T01:49:01;9.90;;;3.25;;
58472;SDS011;44775;51.564;5.460;2023-05-29T01:51:27;11.73;;;3.20;;
58472;SDS011;44775;51.564;5.460;2023-05-29T01:53:53;15.38;;;3.72;;
58472;SDS011;44775;51.564;5.460;2023-05-29T01:56:18;11.25;;;3.53;;
58472;SDS011;44775;51.564;5.460;2023-05-29T01:58:44;9.10;;;3.25;;
58472;SDS011;44775;51.564;5.460;2023-05-29T02:01:11;12.27;;;3.40;;
58472;SDS011;44775;51.564;5.460;2023-05-29T02:03:36;12.25;;;3.25;;
58472;SDS011;44775;51.564;5.460;2023-05-29T02:06:02;10.75;;;3.20;;
58472;SDS011;44775;51.564;5.460;2023-05-29T02:08:27;12.82;;;3.88;;
58472;SDS011;44775;51.564;5.460;2023-05-29T02:10:53;9.52;;;3.22;;
58472;SDS011;44775;51.564;5.460;2023-05-29T02:13:18;15.52;;;3.28;;
58472;SDS011;44775;51.564;5.460;2023-05-29T02:15:44;11.10;;;2.95;;
58472;SDS011;44775;51.564;5.460;2023-05-29T02:18:14;17.35;;;3.55;;
58472;SDS011;44775;51.564;5.460;2023-05-29T02:20:42;14.02;;;3.45;;
58472;SDS011;44775;51.564;5.460;2023-05-29T02:23:08;7.55;;;2.63;;
58472;SDS011;44775;51.564;5.460;2023-05-29T02:25:34;9.93;;;2.97;;
58472;SDS011;44775;51.564;5.460;2023-05-29T02:27:59;13.95;;;3.67;;
58472;SDS011;44775;51.564;5.460;2023-05-29T02:30:24;17.30;;;3.20;;
58472;SDS011;44775;51.564;5.460;2023-05-29T02:32:50;13.27;;;3.65;;
58472;SDS011;44775;51.564;5.460;2023-05-29T02:35:16;7.78;;;3.03;;
58472;SDS011;44775;51.564;5.460;2023-05-29T02:37:42;13.85;;;3.05;;
58472;SDS011;44775;51.564;5.460;2023-05-29T02:40:08;9.50;;;2.95;;
58472;SDS011;44775;51.564;5.460;2023-05-29T02:42:34;16.55;;;3.17;;
58472;SDS011;44775;51.564;5.460;2023-05-29T02:44:59;8.43;;;3.00;;
58472;SDS011;44775;51.564;5.460;2023-05-29T02:47:25;10.40;;;3.40;;
58472;SDS011;44775;51.564;5.460;2023-05-29T02:49:50;10.52;;;2.90;;
58472;SDS011;44775;51.564;5.460;2023-05-29T02:52:16;14.68;;;3.50;;
58472;SDS011;44775;51.564;5.460;2023-05-29T02:54:41;11.93;;;2.95;;
58472;SDS011;44775;51.564;5.460;2023-05-29T02:57:06;8.48;;;2.85;;
58472;SDS011;44775;51.564;5.460;2023-05-29T02:59:31;10.82;;;2.92;;
58472;SDS011;44775;51.564;5.460;2023-05-29T03:01:57;13.32;;;3.20;;
58472;SDS011;44775;51.564;5.460;2023-05-29T03:04:22;13.63;;;3.25;;
58472;SDS011;44775;51.564;5.460;2023-05-29T03:06:47;8.57;;;2.83;;
58472;SDS011;44775;51.564;5.460;2023-05-29T03:09:13;5.68;;;2.80;;
58472;SDS011;44775;51.564;5.460;2023-05-29T03:11:40;13.40;;;2.92;;
58472;SDS011;44775;51.564;5.460;2023-05-29T03:14:06;17.27;;;3.47;;
58472;SDS011;44775;51.564;5.460;2023-05-29T03:16:31;6.65;;;2.70;;
58472;SDS011;44775;51.564;5.460;2023-05-29T03:18:57;13.27;;;3.67;;
58472;SDS011;44775;51.564;5.460;2023-05-29T03:21:22;8.30;;;2.42;;
58472;SDS011;44775;51.564;5.460;2023-05-29T03:23:48;10.55;;;2.90;;
58472;SDS011;44775;51.564;5.460;2023-05-29T03:26:13;7.93;;;2.80;;
58472;SDS011;44775;51.564;5.460;2023-05-29T03:28:39;17.90;;;3.50;;
58472;SDS011;44775;51.564;5.460;2023-05-29T03:31:04;13.00;;;3.00;;
58472;SDS011;44775;51.564;5.460;2023-05-29T03:33:30;13.82;;;2.97;;
58472;SDS011;44775;51.564;5.460;2023-05-29T03:35:55;10.88;;;2.80;;
58472;SDS011;44775;51.564;5.460;2023-05-29T03:38:21;18.90;;;3.25;;
58472;SDS011;44775;51.564;5.460;2023-05-29T03:40:46;11.50;;;3.13;;
58472;SDS011;44775;51.564;5.460;2023-05-29T03:43:11;9.85;;;3.00;;
58472;SDS011;44775;51.564;5.460;2023-05-29T03:45:37;9.65;;;2.70;;
58472;SDS011;44775;51.564;5.460;2023-05-29T03:48:02;10.85;;;2.70;;
58472;SDS011;44775;51.564;5.460;2023-05-29T03:50:27;11.40;;;3.20;;
58472;SDS011;44775;51.564;5.460;2023-05-29T03:52:53;14.07;;;3.22;;
58472;SDS011;44775;51.564;5.460;2023-05-29T03:55:18;12.27;;;3.05;;
58472;SDS011;44775;51.564;5.460;2023-05-29T03:57:43;12.80;;;3.40;;
58472;SDS011;44775;51.564;5.460;2023-05-29T04:00:09;13.60;;;3.50;;
58472;SDS011;44775;51.564;5.460;2023-05-29T04:02:39;12.88;;;3.40;;
58472;SDS011;44775;51.564;5.460;2023-05-29T04:05:06;16.38;;;3.75;;
58472;SDS011;44775;51.564;5.460;2023-05-29T04:07:32;11.50;;;3.22;;
58472;SDS011;44775;51.564;5.460;2023-05-29T04:09:57;17.50;;;3.30;;
58472;SDS011;44775;51.564;5.460;2023-05-29T04:12:23;15.38;;;3.30;;
58472;SDS011;44775;51.564;5.460;2023-05-29T04:14:48;16.80;;;3.95;;
58472;SDS011;44775;51.564;5.460;2023-05-29T04:17:13;9.90;;;3.20;;
58472;SDS011;44775;51.564;5.460;2023-05-29T04:19:39;11.10;;;3.13;;
58472;SDS011;44775;51.564;5.460;2023-05-29T04:22:04;10.00;;;2.92;;
58472;SDS011;44775;51.564;5.460;2023-05-29T04:24:29;16.15;;;3.30;;
58472;SDS011;44775;51.564;5.460;2023-05-29T04:26:56;13.73;;;3.00;;
58472;SDS011;44775;51.564;5.460;2023-05-29T04:29:22;14.13;;;2.80;;
58472;SDS011;44775;51.564;5.460;2023-05-29T04:31:47;9.90;;;2.92;;
58472;SDS011;44775;51.564;5.460;2023-05-29T04:34:13;18.35;;;4.07;;
58472;SDS011;44775;51.564;5.460;2023-05-29T04:36:41;10.15;;;3.45;;
58472;SDS011;44775;51.564;5.460;2023-05-29T04:39:09;13.98;;;3.10;;
58472;SDS011;44775;51.564;5.460;2023-05-29T04:41:34;17.77;;;3.10;;
58472;SDS011;44775;51.564;5.460;2023-05-29T04:44:00;13.13;;;3.13;;
58472;SDS011;44775;51.564;5.460;2023-05-29T04:46:26;19.08;;;3.53;;
58472;SDS011;44775;51.564;5.460;2023-05-29T04:48:51;15.45;;;3.00;;
58472;SDS011;44775;51.564;5.460;2023-05-29T04:51:21;11.00;;;2.90;;
58472;SDS011;44775;51.564;5.460;2023-05-29T04:53:47;18.52;;;3.60;;
58472;SDS011;44775;51.564;5.460;2023-05-29T04:56:13;19.15;;;3.47;;
58472;SDS011;44775;51.564;5.460;2023-05-29T04:58:40;14.40;;;3.10;;
58472;SDS011;44775;51.564;5.460;2023-05-29T05:01:06;12.45;;;3.15;;
58472;SDS011;44775;51.564;5.460;2023-05-29T05:03:33;18.63;;;3.38;;
58472;SDS011;44775;51.564;5.460;2023-05-29T05:06:02;17.58;;;3.42;;
58472;SDS011;44775;51.564;5.460;2023-05-29T05:08:29;10.10;;;2.80;;
58472;SDS011;44775;51.564;5.460;2023-05-29T05:10:54;11.35;;;2.50;;
58472;SDS011;44775;51.564;5.460;2023-05-29T05:13:20;16.10;;;3.20;;
58472;SDS011;44775;51.564;5.460;2023-05-29T05:15:46;14.43;;;2.92;;
58472;SDS011;44775;51.564;5.460;2023-05-29T05:18:11;13.73;;;2.90;;
58472;SDS011;44775;51.564;5.460;2023-05-29T05:20:36;21.48;;;3.60;;
58472;SDS011;44775;51.564;5.460;2023-05-29T05:23:02;13.07;;;2.55;;
58472;SDS011;44775;51.564;5.460;2023-05-29T05:25:27;9.18;;;2.40;;
58472;SDS011;44775;51.564;5.460;2023-05-29T05:27:52;6.90;;;2.30;;
58472;SDS011;44775;51.564;5.460;2023-05-29T05:30:18;11.95;;;2.72;;
58472;SDS011;44775;51.564;5.460;2023-05-29T05:32:43;11.57;;;2.75;;
58472;SDS011;44775;51.564;5.460;2023-05-29T05:35:08;10.93;;;2.53;;
58472;SDS011;44775;51.564;5.460;2023-05-29T05:37:36;14.90;;;3.40;;
58472;SDS011;44775;51.564;5.460;2023-05-29T05:40:01;14.13;;;3.15;;
58472;SDS011;44775;51.564;5.460;2023-05-29T05:42:28;9.50;;;2.30;;
58472;SDS011;44775;51.564;5.460;2023-05-29T05:44:53;8.82;;;2.47;;
58472;SDS011;44775;51.564;5.460;2023-05-29T05:47:18;18.38;;;4.18;;
58472;SDS011;44775;51.564;5.460;2023-05-29T05:49:43;10.68;;;2.65;;
58472;SDS011;44775;51.564;5.460;2023-05-29T05:52:09;11.73;;;2.92;;
58472;SDS011;44775;51.564;5.460;2023-05-29T05:54:34;17.40;;;3.10;;
58472;SDS011;44775;51.564;5.460;2023-05-29T05:57:00;10.30;;;2.65;;
58472;SDS011;44775;51.564;5.460;2023-05-29T05:59:25;8.20;;;2.35;;
58472;SDS011;44775;51.564;5.460;2023-05-29T06:01:51;11.13;;;2.47;;
58472;SDS011;44775;51.564;5.460;2023-05-29T06:04:16;16.35;;;3.60;;
58472;SDS011;44775;51.564;5.460;2023-05-29T06:06:42;16.88;;;3.13;;
58472;SDS011;44775;51.564;5.460;2023-05-29T06:09:07;17.85;;;3.38;;
58472;SDS011;44775;51.564;5.460;2023-05-29T06:11:34;6.93;;;2.28;;
58472;SDS011;44775;51.564;5.460;2023-05-29T06:13:59;5.53;;;2.03;;
58472;SDS011;44775;51.564;5.460;2023-05-29T06:16:24;16.50;;;2.83;;
58472;SDS011;44775;51.564;5.460;2023-05-29T06:18:50;11.52;;;2.50;;
58472;SDS011;44775;51.564;5.460;2023-05-29T06:21:15;10.23;;;2.38;;
58472;SDS011;44775;51.564;5.460;2023-05-29T06:23:41;13.07;;;2.85;;
58472;SDS011;44775;51.564;5.460;2023-05-29T06:26:06;8.38;;;2.63;;
58472;SDS011;44775;51.564;5.460;2023-05-29T06:28:32;8.68;;;2.20;;
58472;SDS011;44775;51.564;5.460;2023-05-29T06:30:57;7.43;;;1.92;;
58472;SDS011;44775;51.564;5.460;2023-05-29T06:33:23;9.50;;;2.63;;
58472;SDS011;44775;51.564;5.460;2023-05-29T06:35:49;11.30;;;2.65;;
58472;SDS011;44775;51.564;5.460;2023-05-29T06:38:14;12.27;;;2.42;;
58472;SDS011;44775;51.564;5.460;2023-05-29T06:40:40;12.73;;;2.40;;
58472;SDS011;44775;51.564;5.460;2023-05-29T06:43:05;13.65;;;2.55;;
58472;SDS011;44775;51.564;5.460;2023-05-29T06:45:30;9.90;;;2.35;;
58472;SDS011;44775;51.564;5.460;2023-05-29T06:47:56;8.70;;;2.22;;
58472;SDS011;44775;51.564;5.460;2023-05-29T06:50:21;8.55;;;2.47;;
58472;SDS011;44775;51.564;5.460;2023-05-29T06:52:47;8.63;;;2.20;;
58472;SDS011;44775;51.564;5.460;2023-05-29T06:55:12;10.38;;;2.08;;
58472;SDS011;44775;51.564;5.460;2023-05-29T06:57:38;11.75;;;2.20;;
58472;SDS011;44775;51.564;5.460;2023-05-29T07:00:04;10.75;;;2.30;;
58472;SDS011;44775;51.564;5.460;2023-05-29T07:02:31;7.93;;;2.20;;
58472;SDS011;44775;51.564;5.460;2023-05-29T07:04:56;7.32;;;1.98;;
58472;SDS011;44775;51.564;5.460;2023-05-29T07:07:22;9.52;;;2.17;;
58472;SDS011;44775;51.564;5.460;2023-05-29T07:09:47;15.80;;;2.72;;
58472;SDS011;44775;51.564;5.460;2023-05-29T07:12:12;9.30;;;2.30;;
58472;SDS011;44775;51.564;5.460;2023-05-29T07:14:37;5.57;;;2.00;;
58472;SDS011;44775;51.564;5.460;2023-05-29T07:17:03;12.95;;;2.47;;
58472;SDS011;44775;51.564;5.460;2023-05-29T07:19:28;9.50;;;2.58;;
58472;SDS011;44775;51.564;5.460;2023-05-29T07:21:54;12.70;;;2.40;;
58472;SDS011;44775;51.564;5.460;2023-05-29T07:24:19;10.88;;;2.20;;
58472;SDS011;44775;51.564;5.460;2023-05-29T07:26:45;5.30;;;1.75;;
58472;SDS011;44775;51.564;5.460;2023-05-29T07:29:10;7.75;;;2.28;;
58472;SDS011;44775;51.564;5.460;2023-05-29T07:31:36;11.65;;;2.25;;
58472;SDS011;44775;51.564;5.460;2023-05-29T07:34:02;11.25;;;2.38;;
58472;SDS011;44775;51.564;5.460;2023-05-29T07:36:29;10.52;;;2.25;;
58472;SDS011;44775;51.564;5.460;2023-05-29T07:38:56;9.80;;;2.20;;
58472;SDS011;44775;51.564;5.460;2023-05-29T07:41:23;10.77;;;2.42;;
58472;SDS011;44775;51.564;5.460;2023-05-29T07:43:48;9.80;;;2.05;;
58472;SDS011;44775;51.564;5.460;2023-05-29T07:46:16;12.13;;;2.33;;
58472;SDS011;44775;51.564;5.460;2023-05-29T07:48:42;7.32;;;1.90;;
58472;SDS011;44775;51.564;5.460;2023-05-29T07:51:07;5.60;;;1.75;;
58472;SDS011;44775;51.564;5.460;2023-05-29T07:53:34;4.28;;;1.70;;
58472;SDS011;44775;51.564;5.460;2023-05-29T07:56:00;7.78;;;2.08;;
58472;SDS011;44775;51.564;5.460;2023-05-29T07:58:25;6.88;;;1.90;;
58472;SDS011;44775;51.564;5.460;2023-05-29T08:00:52;8.77;;;2.10;;
58472;SDS011;44775;51.564;5.460;2023-05-29T08:03:17;3.72;;;1.42;;
58472;SDS011;44775;51.564;5.460;2023-05-29T08:05:42;8.02;;;2.20;;
58472;SDS011;44775;51.564;5.460;2023-05-29T08:08:07;10.90;;;2.28;;
58472;SDS011;44775;51.564;5.460;2023-05-29T08:10:33;6.28;;;1.95;;
58472;SDS011;44775;51.564;5.460;2023-05-29T08:12:58;5.50;;;1.67;;
58472;SDS011;44775;51.564;5.460;2023-05-29T08:15:23;13.02;;;2.20;;
58472;SDS011;44775;51.564;5.460;2023-05-29T08:17:51;6.85;;;1.80;;
58472;SDS011;44775;51.564;5.460;2023-05-29T08:20:16;4.32;;;1.58;;
58472;SDS011;44775;51.564;5.460;2023-05-29T08:22:42;5.45;;;1.85;;
58472;SDS011;44775;51.564;5.460;2023-05-29T08:25:07;4.85;;;1.67;;
58472;SDS011;44775;51.564;5.460;2023-05-29T08:27:33;7.78;;;2.10;;
58472;SDS011;44775;51.564;5.460;2023-05-29T08:29:58;6.07;;;2.00;;
58472;SDS011;44775;51.564;5.460;2023-05-29T08:32:23;9.13;;;2.13;;
58472;SDS011;44775;51.564;5.460;2023-05-29T08:34:49;11.43;;;2.13;;
58472;SDS011;44775;51.564;5.460;2023-05-29T08:37:15;7.00;;;2.00;;
58472;SDS011;44775;51.564;5.460;2023-05-29T08:39:41;19.98;;;2.15;;
58472;SDS011;44775;51.564;5.460;2023-05-29T08:42:13;6.18;;;1.70;;
58472;SDS011;44775;51.564;5.460;2023-05-29T08:44:46;3.10;;;1.40;;
58472;SDS011;44775;51.564;5.460;2023-05-29T08:47:16;8.25;;;2.22;;
58472;SDS011;44775;51.564;5.460;2023-05-29T08:49:46;6.55;;;1.83;;
58472;SDS011;44775;51.564;5.460;2023-05-29T08:52:24;10.77;;;1.90;;
58472;SDS011;44775;51.564;5.460;2023-05-29T08:54:53;12.35;;;2.20;;
58472;SDS011;44775;51.564;5.460;2023-05-29T08:57:19;8.65;;;1.80;;
58472;SDS011;44775;51.564;5.460;2023-05-29T08:59:45;12.30;;;2.25;;
58472;SDS011;44775;51.564;5.460;2023-05-29T09:02:14;9.85;;;2.50;;
58472;SDS011;44775;51.564;5.460;2023-05-29T09:04:43;6.70;;;2.33;;
58472;SDS011;44775;51.564;5.460;2023-05-29T09:07:17;10.05;;;2.03;;
58472;SDS011;44775;51.564;5.460;2023-05-29T09:09:44;5.57;;;1.58;;
58472;SDS011;44775;51.564;5.460;2023-05-29T09:12:10;6.75;;;1.90;;
58472;SDS011;44775;51.564;5.460;2023-05-29T09:14:40;5.68;;;1.63;;
58472;SDS011;44775;51.564;5.460;2023-05-29T09:17:09;4.38;;;1.60;;
58472;SDS011;44775;51.564;5.460;2023-05-29T09:19:36;6.22;;;1.77;;
58472;SDS011;44775;51.564;5.460;2023-05-29T09:22:09;8.38;;;2.15;;
58472;SDS011;44775;51.564;5.460;2023-05-29T09:24:36;7.50;;;1.80;;
58472;SDS011;44775;51.564;5.460;2023-05-29T09:27:03;8.57;;;2.17;;
58472;SDS011;44775;51.564;5.460;2023-05-29T09:29:38;4.70;;;1.55;;
58472;SDS011;44775;51.564;5.460;2023-05-29T09:32:08;3.10;;;1.40;;
58472;SDS011;44775;51.564;5.460;2023-05-29T09:34:34;6.18;;;1.85;;
58472;SDS011;44775;51.564;5.460;2023-05-29T09:37:03;7.60;;;2.00;;
58472;SDS011;44775;51.564;5.460;2023-05-29T09:42:06;5.15;;;1.60;;
58472;SDS011;44775;51.564;5.460;2023-05-29T09:44:32;4.97;;;1.60;;
58472;SDS011;44775;51.564;5.460;2023-05-29T09:46:58;6.40;;;1.90;;
58472;SDS011;44775;51.564;5.460;2023-05-29T09:49:25;3.75;;;1.40;;
58472;SDS011;44775;51.564;5.460;2023-05-29T09:51:54;4.95;;;1.60;;
58472;SDS011;44775;51.564;5.460;2023-05-29T09:54:20;5.60;;;1.73;;
58472;SDS011;44775;51.564;5.460;2023-05-29T09:56:46;5.38;;;1.67;;
58472;SDS011;44775;51.564;5.460;2023-05-29T09:59:12;9.38;;;2.00;;
58472;SDS011;44775;51.564;5.460;2023-05-29T10:01:44;4.85;;;1.60;;
58472;SDS011;44775;51.564;5.460;2023-05-29T10:04:09;5.10;;;1.92;;
58472;SDS011;44775;51.564;5.460;2023-05-29T10:06:36;7.57;;;2.05;;
58472;SDS011;44775;51.564;5.460;2023-05-29T10:09:03;7.43;;;2.00;;
58472;SDS011;44775;51.564;5.460;2023-05-29T10:11:35;6.05;;;1.90;;
58472;SDS011;44775;51.564;5.460;2023-05-29T10:14:02;7.20;;;2.23;;
58472;SDS011;44775;51.564;5.460;2023-05-29T10:16:30;7.25;;;2.10;;
58472;SDS011;44775;51.564;5.460;2023-05-29T10:19:00;10.48;;;2.38;;
58472;SDS011;44775;51.564;5.460;2023-05-29T10:21:32;7.80;;;2.15;;
58472;SDS011;44775;51.564;5.460;2023-05-29T10:24:00;7.47;;;2.05;;
58472;SDS011;44775;51.564;5.460;2023-05-29T10:26:31;6.28;;;1.98;;
58472;SDS011;44775;51.564;5.460;2023-05-29T10:34:39;7.18;;;1.98;;
58472;SDS011;44775;51.564;5.460;2023-05-29T10:37:31;4.10;;;1.55;;
58472;SDS011;44775;51.564;5.460;2023-05-29T10:40:07;7.85;;;2.22;;
58472;SDS011;44775;51.564;5.460;2023-05-29T10:42:42;4.43;;;1.65;;
58472;SDS011;44775;51.564;5.460;2023-05-29T10:45:08;3.95;;;1.60;;
58472;SDS011;44775;51.564;5.460;2023-05-29T10:47:36;8.13;;;1.98;;
58472;SDS011;44775;51.564;5.460;2023-05-29T10:50:02;6.40;;;1.90;;
58472;SDS011;44775;51.564;5.460;2023-05-29T10:52:34;6.68;;;2.00;;
58472;SDS011;44775;51.564;5.460;2023-05-29T10:55:03;4.30;;;1.67;;
58472;SDS011;44775;51.564;5.460;2023-05-29T10:57:29;4.55;;;1.73;;
58472;SDS011;44775;51.564;5.460;2023-05-29T11:00:03;3.97;;;1.73;;
58472;SDS011;44775;51.564;5.460;2023-05-29T11:02:31;5.70;;;1.60;;
58472;SDS011;44775;51.564;5.460;2023-05-29T11:07:52;8.02;;;2.30;;
58472;SDS011;44775;51.564;5.460;2023-05-29T11:11:02;4.75;;;1.58;;
58472;SDS011;44775;51.564;5.460;2023-05-29T11:13:09;3.40;;;1.40;;
58472;SDS011;44775;51.564;5.460;2023-05-29T11:15:37;5.83;;;2.17;;
58472;SDS011;44775;51.564;5.460;2023-05-29T11:18:06;5.20;;;1.70;;
58472;SDS011;44775;51.564;5.460;2023-05-29T11:20:35;4.30;;;1.50;;
58472;SDS011;44775;51.564;5.460;2023-05-29T11:23:07;5.47;;;1.83;;
58472;SDS011;44775;51.564;5.460;2023-05-29T11:25:34;5.72;;;1.65;;
58472;SDS011;44775;51.564;5.460;2023-05-29T11:28:01;4.22;;;1.65;;
58472;SDS011;44775;51.564;5.460;2023-05-29T11:30:29;9.40;;;1.98;;
58472;SDS011;44775;51.564;5.460;2023-05-29T11:32:55;10.60;;;2.05;;
58472;SDS011;44775;51.564;5.460;2023-05-29T11:35:26;3.20;;;1.23;;
58472;SDS011;44775;51.564;5.460;2023-05-29T11:37:55;2.20;;;1.23;;
58472;SDS011;44775;51.564;5.460;2023-05-29T11:40:21;2.60;;;1.10;;
58472;SDS011;44775;51.564;5.460;2023-05-29T11:42:46;7.47;;;2.30;;
58472;SDS011;44775;51.564;5.460;2023-05-29T11:47:57;8.23;;;2.20;;
58472;SDS011;44775;51.564;5.460;2023-05-29T11:50:25;7.82;;;2.28;;
58472;SDS011;44775;51.564;5.460;2023-05-29T11:52:54;9.50;;;1.98;;
58472;SDS011;44775;51.564;5.460;2023-05-29T11:55:21;4.78;;;1.60;;
58472;SDS011;44775;51.564;5.460;2023-05-29T11:57:47;8.32;;;2.00;;
58472;SDS011;44775;51.564;5.460;2023-05-29T12:00:14;5.30;;;1.73;;
58472;SDS011;44775;51.564;5.460;2023-05-29T12:02:40;4.22;;;1.60;;
58472;SDS011;44775;51.564;5.460;2023-05-29T12:05:12;4.28;;;1.52;;
58472;SDS011;44775;51.564;5.460;2023-05-29T12:07:46;3.10;;;1.40;;
58472;SDS011;44775;51.564;5.460;2023-05-29T12:10:16;3.85;;;2.10;;
58472;SDS011;44775;51.564;5.460;2023-05-29T12:12:46;5.00;;;1.60;;
58472;SDS011;44775;51.564;5.460;2023-05-29T12:15:16;7.63;;;1.98;;
58472;SDS011;44775;51.564;5.460;2023-05-29T12:17:42;4.85;;;1.95;;
58472;SDS011;44775;51.564;5.460;2023-05-29T12:20:09;4.15;;;2.00;;
58472;SDS011;44775;51.564;5.460;2023-05-29T12:22:36;5.65;;;1.85;;
58472;SDS011;44775;51.564;5.460;2023-05-29T12:25:04;5.13;;;1.73;;
58472;SDS011;44775;51.564;5.460;2023-05-29T12:27:31;8.27;;;1.63;;
58472;SDS011;44775;51.564;5.460;2023-05-29T12:30:00;9.45;;;2.50;;
58472;SDS011;44775;51.564;5.460;2023-05-29T12:32:33;6.32;;;1.90;;
58472;SDS011;44775;51.564;5.460;2023-05-29T12:35:15;3.33;;;1.30;;
58472;SDS011;44775;51.564;5.460;2023-05-29T12:37:41;7.28;;;2.40;;
58472;SDS011;44775;51.564;5.460;2023-05-29T12:40:13;4.55;;;1.63;;
58472;SDS011;44775;51.564;5.460;2023-05-29T12:42:40;5.25;;;1.50;;
58472;SDS011;44775;51.564;5.460;2023-05-29T12:45:06;3.00;;;1.35;;
58472;SDS011;44775;51.564;5.460;2023-05-29T12:47:32;6.22;;;1.70;;
58472;SDS011;44775;51.564;5.460;2023-05-29T12:49:58;3.22;;;1.40;;
58472;SDS011;44775;51.564;5.460;2023-05-29T12:52:23;2.92;;;1.30;;
58472;SDS011;44775;51.564;5.460;2023-05-29T12:54:48;6.07;;;1.98;;
58472;SDS011;44775;51.564;5.460;2023-05-29T12:57:14;4.18;;;1.35;;
58472;SDS011;44775;51.564;5.460;2023-05-29T12:59:39;1.98;;;1.10;;
58472;SDS011;44775;51.564;5.460;2023-05-29T13:02:05;2.92;;;1.20;;
58472;SDS011;44775;51.564;5.460;2023-05-29T13:04:32;6.55;;;1.70;;
58472;SDS011;44775;51.564;5.460;2023-05-29T13:06:58;9.60;;;1.90;;
58472;SDS011;44775;51.564;5.460;2023-05-29T13:09:23;4.10;;;1.35;;
58472;SDS011;44775;51.564;5.460;2023-05-29T13:11:49;6.35;;;2.17;;
58472;SDS011;44775;51.564;5.460;2023-05-29T13:14:14;4.53;;;1.48;;
58472;SDS011;44775;51.564;5.460;2023-05-29T13:16:39;5.10;;;1.80;;
58472;SDS011;44775;51.564;5.460;2023-05-29T13:19:05;5.50;;;1.45;;
58472;SDS011;44775;51.564;5.460;2023-05-29T13:21:31;3.00;;;1.30;;
58472;SDS011;44775;51.564;5.460;2023-05-29T13:23:57;3.80;;;1.55;;
58472;SDS011;44775;51.564;5.460;2023-05-29T13:26:22;3.05;;;1.45;;
58472;SDS011;44775;51.564;5.460;2023-05-29T13:28:48;6.43;;;1.80;;
58472;SDS011;44775;51.564;5.460;2023-05-29T13:31:13;5.20;;;1.90;;
58472;SDS011;44775;51.564;5.460;2023-05-29T13:33:38;4.57;;;1.50;;
58472;SDS011;44775;51.564;5.460;2023-05-29T13:36:04;6.35;;;2.42;;
58472;SDS011;44775;51.564;5.460;2023-05-29T13:38:30;5.78;;;2.00;;
58472;SDS011;44775;51.564;5.460;2023-05-29T13:40:55;10.43;;;2.17;;
58472;SDS011;44775;51.564;5.460;2023-05-29T13:43:20;4.78;;;1.40;;
58472;SDS011;44775;51.564;5.460;2023-05-29T13:45:46;7.95;;;2.00;;
58472;SDS011;44775;51.564;5.460;2023-05-29T13:48:11;5.25;;;1.50;;
58472;SDS011;44775;51.564;5.460;2023-05-29T13:50:36;7.68;;;2.28;;
58472;SDS011;44775;51.564;5.460;2023-05-29T13:53:02;5.43;;;1.92;;
58472;SDS011;44775;51.564;5.460;2023-05-29T13:55:27;7.22;;;2.15;;
58472;SDS011;44775;51.564;5.460;2023-05-29T13:57:52;3.50;;;1.63;;
58472;SDS011;44775;51.564;5.460;2023-05-29T14:00:18;6.47;;;2.00;;
58472;SDS011;44775;51.564;5.460;2023-05-29T14:02:43;2.20;;;1.20;;
58472;SDS011;44775;51.564;5.460;2023-05-29T14:05:09;6.10;;;1.88;;
58472;SDS011;44775;51.564;5.460;2023-05-29T14:07:35;4.18;;;1.67;;
58472;SDS011;44775;51.564;5.460;2023-05-29T14:10:01;12.35;;;2.10;;
58472;SDS011;44775;51.564;5.460;2023-05-29T14:12:27;2.72;;;1.38;;
58472;SDS011;44775;51.564;5.460;2023-05-29T14:14:52;5.03;;;1.80;;
58472;SDS011;44775;51.564;5.460;2023-05-29T14:17:17;5.13;;;1.52;;
58472;SDS011;44775;51.564;5.460;2023-05-29T14:19:43;6.32;;;2.42;;
58472;SDS011;44775;51.564;5.460;2023-05-29T14:22:10;9.02;;;2.58;;
58472;SDS011;44775;51.564;5.460;2023-05-29T14:24:36;4.20;;;1.30;;
58472;SDS011;44775;51.564;5.460;2023-05-29T14:27:01;4.68;;;1.88;;
58472;SDS011;44775;51.564;5.460;2023-05-29T14:29:27;4.68;;;1.95;;
58472;SDS011;44775;51.564;5.460;2023-05-29T14:31:52;6.22;;;1.92;;
58472;SDS011;44775;51.564;5.460;2023-05-29T14:34:18;6.63;;;1.70;;
58472;SDS011;44775;51.564;5.460;2023-05-29T14:36:43;7.82;;;2.15;;
58472;SDS011;44775;51.564;5.460;2023-05-29T14:39:09;4.43;;;1.73;;
58472;SDS011;44775;51.564;5.460;2023-05-29T14:41:35;5.07;;;1.70;;
58472;SDS011;44775;51.564;5.460;2023-05-29T14:44:00;4.35;;;1.65;;
58472;SDS011;44775;51.564;5.460;2023-05-29T14:46:26;5.05;;;1.63;;
58472;SDS011;44775;51.564;5.460;2023-05-29T14:48:53;5.25;;;1.70;;
58472;SDS011;44775;51.564;5.460;2023-05-29T14:51:19;5.55;;;1.75;;
58472;SDS011;44775;51.564;5.460;2023-05-29T14:53:45;6.53;;;1.50;;
58472;SDS011;44775;51.564;5.460;2023-05-29T14:56:11;4.95;;;1.65;;
58472;SDS011;44775;51.564;5.460;2023-05-29T14:58:36;11.35;;;2.25;;